This is the latest recevied weather packets stored in our database for station/object IU2PLZ-10. If no packets are shown the sender has not sent any weather packets the latest 1 day(s).
| Time | Temp. | Humidity | Pressure | Rain* | Wind** | Luminosity | Snow |
|---|---|---|---|---|---|---|---|
| 1777744918 | 15.56° C | 54% | 969.3 hPa | - | - | - | - |
| 1777744018 | 16.11° C | 53% | 970.1 hPa | - | - | - | - |
| 1777743118 | 16.67° C | 53% | 970.1 hPa | - | - | - | - |
| 1777742218 | 16.67° C | 52% | 969.7 hPa | - | - | - | - |
| 1777741317 | 17.22° C | 51% | 969.8 hPa | - | - | - | - |
| 1777740417 | 17.22° C | 52% | 969.8 hPa | - | - | - | - |
| 1777739517 | 17.78° C | 50% | 969.7 hPa | - | - | - | - |
| 1777738617 | 13.89° C | 50% | 964 hPa | - | - | - | - |
| 1777737717 | 18.33° C | 50% | 969.6 hPa | - | - | - | - |
| 1777736817 | 18.33° C | 48% | 969.5 hPa | - | - | - | - |
| 1777735916 | 18.33° C | 47% | 968.9 hPa | - | - | - | - |
| 1777735016 | 18.89° C | 45% | 969.7 hPa | - | - | - | - |
| 1777734116 | 18.89° C | 44% | 969 hPa | - | - | - | - |
| 1777733216 | 19.44° C | 42% | 969.8 hPa | - | - | - | - |
| 1777732316 | 20° C | 41% | 969.8 hPa | - | - | - | - |
| 1777731416 | 20.56° C | 40% | 969.9 hPa | - | - | - | - |
| 1777730516 | 20.56° C | 39% | 969.9 hPa | - | - | - | - |
| 1777729615 | 21.11° C | 38% | 970.1 hPa | - | - | - | - |
| 1777728715 | 21.11° C | 37% | 969.5 hPa | - | - | - | - |
| 1777726915 | 21.11° C | 37% | 969.6 hPa | - | - | - | - |
| 1777726014 | 21.67° C | 37% | 970.5 hPa | - | - | - | - |
| 1777725114 | 20.56° C | 40% | 969.9 hPa | - | - | - | - |
| 1777724214 | 20.56° C | 40% | 969.8 hPa | - | - | - | - |
| 1777723314 | 21.11° C | 39% | 970.6 hPa | - | - | - | - |
| 1777722414 | 21.11° C | 39% | 970.6 hPa | - | - | - | - |
* Rain since midnight (hover to see other rain measurements)
** Current wind speed in m/s (hover to see current wind gust speed)